Alton, United Kingdom
Current Conditions -  °F | °C
As of 2:50 PM on Wednesday 26 Nov 2014 (Local Time) from EGVO Reporting Station
Moderate Fog Moderate Fog  
Wind Chill: 44°   Ceiling: Unl
Heat Index: 46°   Visibility: 0.15mi
Dew Point: 46°   Wind: 5mph
Humidity: 100%   Direction: 330°NNW
Pressure: 29.8"   Gusts: NA
Location:  51.15°N, 0.97°W
Report Text: EGVO 261450Z 33004KT 0250 FG VV/// 08/08 Q1009 RED NOSIG
Loading
Personal Weather Stations






























Interactive Weather Map New forecast layout! Learn more

10-Day Weather Forecast

Advertisements
Track Severe Weather on mobile